Time;durP1;ratioP1;P1;durP2;ratioP2;P2;SDS_P1;SDS_P2;PMS_P1;PMS_P2;Temp;Humidity;BMP_temperature;BMP_pressure;BME280_temperature;BME280_humidity;BME280_pressure;Samples;Min_cycle;Max_cycle;Signal;HPM_P1;HPM_P2
2022/06/12 00:01:45;;;;;;;0.80;0.22;;;;;;;25.90;41.71;101014.84;4972643;28;20727;-73
2022/06/12 00:04:10;;;;;;;0.40;0.20;;;;;;;25.90;41.76;101005.00;4978994;28;20023;-72
2022/06/12 00:06:35;;;;;;;1.88;0.30;;;;;;;25.89;41.80;101006.03;4989798;28;20088;-70
2022/06/12 00:09:01;;;;;;;0.40;0.20;;;;;;;25.89;41.94;101003.38;4974219;28;20356;-71
2022/06/12 00:11:27;;;;;;;1.52;0.30;;;;;;;25.89;42.04;101002.56;4989880;28;20038;-71
2022/06/12 00:13:59;;;;;;;1.42;0.28;;;;;;;25.89;41.74;100992.69;4988947;28;20060;-71
2022/06/12 00:16:28;;;;;;;0.43;0.30;;;;;;;25.89;42.15;101003.38;4987446;28;20116;-72
2022/06/12 00:18:55;;;;;;;0.82;0.30;;;;;;;25.90;42.02;100993.50;4971871;28;20066;-71
2022/06/12 00:21:21;;;;;;;0.77;0.30;;;;;;;25.89;42.06;100999.88;4985322;28;20034;-70
2022/06/12 00:23:56;;;;;;;1.23;0.30;;;;;;;25.86;42.17;100998.50;4986126;28;20375;-71
2022/06/12 00:26:43;;;;;;;2.65;0.57;;;;;;;25.82;41.89;101002.66;4989509;28;20034;-71
2022/06/12 00:29:15;;;;;;;1.02;0.35;;;;;;;25.81;41.81;100995.69;4987210;28;20034;-70
2022/06/12 00:31:44;;;;;;;3.15;0.40;;;;;;;25.81;41.87;101003.72;4975229;28;20046;-72
2022/06/12 00:34:12;;;;;;;0.50;0.30;;;;;;;25.80;41.87;100994.06;4985159;28;20070;-70
2022/06/12 00:36:38;;;;;;;0.98;0.30;;;;;;;25.80;41.80;100996.75;4990703;28;20113;-71
2022/06/12 00:39:05;;;;;;;0.98;0.20;;;;;;;25.81;41.91;101001.03;4979362;28;20446;-70
2022/06/12 00:41:31;;;;;;;1.10;0.20;;;;;;;25.81;41.89;100998.38;4990401;28;20050;-70
2022/06/12 00:43:56;;;;;;;1.42;0.60;;;;;;;25.81;41.80;100997.56;4988273;28;20038;-71
2022/06/12 00:46:49;;;;;;;2.85;0.40;;;;;;;25.78;41.83;101004.16;4985600;28;20030;-69
2022/06/12 00:49:22;;;;;;;0.70;0.28;;;;;;;25.78;41.67;100998.84;4990454;28;20031;-70
2022/06/12 00:51:56;;;;;;;1.40;0.30;;;;;;;25.78;41.73;101001.50;4988670;28;20038;-71
2022/06/12 00:54:24;;;;;;;0.50;0.30;;;;;;;25.77;41.90;100994.53;4988205;28;20128;-72
2022/06/12 00:56:54;;;;;;;0.70;0.30;;;;;;;25.78;41.80;100994.31;4987728;28;20038;-71
2022/06/12 00:59:33;;;;;;;1.10;0.30;;;;;;;25.79;42.01;101000.47;4984902;28;20149;-70
2022/06/12 01:01:59;;;;;;;1.13;0.32;;;;;;;25.81;42.00;101000.22;4979531;28;20488;-70
2022/06/12 01:07:14;;;;;;;1.85;0.30;;;;;;;25.78;41.72;100996.16;4988331;28;20068;-70
2022/06/12 01:09:43;;;;;;;2.50;0.40;;;;;;;25.78;41.89;100996.97;4987860;28;20350;-70
2022/06/12 01:12:14;;;;;;;0.93;0.20;;;;;;;25.78;41.55;101001.50;4985301;28;20489;-70
2022/06/12 01:14:49;;;;;;;1.40;0.20;;;;;;;25.77;41.65;100998.03;4987045;28;20030;-71
2022/06/12 01:17:15;;;;;;;1.40;0.40;;;;;;;25.78;41.80;100996.16;4974320;28;20045;-72
2022/06/12 01:19:43;;;;;;;0.98;0.30;;;;;;;25.78;41.66;100993.50;4981215;28;20107;-71
2022/06/12 01:22:22;;;;;;;0.45;0.20;;;;;;;25.78;41.72;100990.81;4987795;28;20545;-71
2022/06/12 01:25:05;;;;;;;0.75;0.30;;;;;;;25.77;41.53;100997.22;4990030;28;20106;-71
2022/06/12 01:28:06;;;;;;;0.93;0.30;;;;;;;25.76;41.83;100990.25;4984577;28;20038;-71
2022/06/12 01:31:14;;;;;;;0.40;0.30;;;;;;;25.72;41.76;100983.75;4928072;29;20054;-70
2022/06/12 01:33:53;;;;;;;2.00;0.32;;;;;;;25.71;41.80;100987.47;4910044;29;20044;-71
2022/06/12 01:36:28;;;;;;;1.42;0.50;;;;;;;25.72;41.71;100981.06;4925297;29;20043;-71
2022/06/12 01:39:19;;;;;;;1.90;0.30;;;;;;;25.72;41.73;100989.09;4926512;29;20031;-72
2022/06/12 01:41:58;;;;;;;0.75;0.20;;;;;;;25.71;41.71;100982.94;4928067;29;20520;-72
2022/06/12 01:44:45;;;;;;;0.70;0.30;;;;;;;25.71;41.80;100976.78;4926418;29;20076;-72
2022/06/12 01:47:22;;;;;;;0.30;0.20;;;;;;;25.73;41.78;100988.03;4926650;29;20054;-71
2022/06/12 01:50:21;;;;;;;3.05;0.20;;;;;;;25.72;41.62;100981.88;4928919;29;20464;-71
2022/06/12 01:53:05;;;;;;;0.60;0.30;;;;;;;25.72;41.55;100981.06;4928588;29;20130;-72
2022/06/12 01:55:30;;;;;;;0.88;0.30;;;;;;;25.74;41.67;100987.81;4927772;29;20127;-70
2022/06/12 01:58:07;;;;;;;1.88;0.20;;;;;;;25.76;41.61;100982.25;4926905;29;20035;-72
2022/06/12 02:00:33;;;;;;;0.57;0.20;;;;;;;25.76;41.48;100976.91;4928043;29;20102;-71
2022/06/12 02:03:01;;;;;;;0.30;0.20;;;;;;;25.78;41.32;100982.81;4926321;29;20076;-71
2022/06/12 02:05:59;;;;;;;0.43;0.20;;;;;;;25.76;41.32;100990.25;4939815;28;20046;-73
2022/06/12 02:08:42;;;;;;;0.40;0.20;;;;;;;25.76;41.28;100992.91;4989636;28;20532;-72
2022/06/12 02:14:18;;;;;;;1.58;0.20;;;;;;;25.76;41.37;100993.72;4987044;28;20056;-72
2022/06/12 02:16:49;;;;;;;2.20;0.20;;;;;;;25.74;41.03;101001.16;4984266;28;20030;-73
2022/06/12 02:19:18;;;;;;;1.35;0.20;;;;;;;25.74;41.13;100998.47;4952290;28;20038;-73
2022/06/12 02:21:57;;;;;;;0.60;0.25;;;;;;;25.74;41.21;101003.00;4981113;28;20112;-72
2022/06/12 02:24:32;;;;;;;1.88;0.40;;;;;;;25.74;41.17;101001.16;4987137;28;20220;-72
2022/06/12 02:27:02;;;;;;;;;;;;;;;25.66;41.25;100992.66;4985477;28;20069;-72
2022/06/12 02:30:02;;;;;;;0.73;0.20;;;;;;;25.67;41.18;100994.28;4988465;28;20418;-72
2022/06/12 02:32:34;;;;;;;2.05;0.40;;;;;;;25.69;41.10;100998.34;4981013;28;20134;-73
2022/06/12 02:35:18;;;;;;;0.65;0.30;;;;;;;25.71;41.34;101001.59;4976886;28;20030;-73
2022/06/12 02:37:54;;;;;;;0.93;0.40;;;;;;;25.70;41.29;101001.84;4988890;28;20104;-73
2022/06/12 02:40:38;;;;;;;2.15;0.30;;;;;;;25.71;41.14;101011.47;4984154;28;20045;-72
2022/06/12 02:43:10;;;;;;;1.25;0.20;;;;;;;25.70;40.99;101001.84;4983248;28;20085;-72
2022/06/12 02:45:52;;;;;;;0.50;0.30;;;;;;;25.67;40.59;101007.63;4986209;28;20491;-71
2022/06/12 02:48:19;;;;;;;1.58;0.20;;;;;;;25.67;40.87;101008.44;4976501;28;20066;-72
2022/06/12 02:51:02;;;;;;;1.98;0.30;;;;;;;25.68;40.62;101004.75;4980226;28;20033;-73
2022/06/12 02:54:00;;;;;;;0.90;0.20;;;;;;;25.66;40.71;100992.66;4988508;28;20065;-71
2022/06/12 02:56:52;;;;;;;0.82;0.20;;;;;;;25.67;40.63;101007.63;4984874;28;20430;-74
2022/06/12 02:59:37;;;;;;;0.50;0.30;;;;;;;25.67;40.97;101010.31;4986150;28;20153;-74
2022/06/12 03:02:32;;;;;;;1.52;0.20;;;;;;;25.67;40.88;101004.97;4988073;28;20113;-72
2022/06/12 03:05:06;;;;;;;0.20;0.15;;;;;;;25.66;40.97;101003.34;4968633;28;20050;-72
2022/06/12 03:07:33;;;;;;;0.37;0.20;;;;;;;25.67;40.79;101004.97;4984536;28;20481;-71
2022/06/12 03:10:05;;;;;;;2.90;0.30;;;;;;;25.67;40.58;101011.13;4986485;28;20149;-72
2022/06/12 03:12:32;;;;;;;0.70;0.30;;;;;;;25.65;40.62;101007.88;4987428;28;20049;-71
2022/06/12 03:14:59;;;;;;;1.05;0.20;;;;;;;25.65;40.69;101007.88;4987137;28;20034;-71
2022/06/12 03:17:25;;;;;;;1.02;0.20;;;;;;;25.63;40.53;101014.44;4986870;28;20034;-70
2022/06/12 03:19:54;;;;;;;0.57;0.20;;;;;;;25.61;40.57;101009.34;4969066;28;20031;-70
2022/06/12 03:22:32;;;;;;;0.45;0.30;;;;;;;25.59;40.57;101013.28;4988973;28;20454;-71
2022/06/12 03:25:13;;;;;;;1.48;0.35;;;;;;;25.56;40.53;101016.41;4992212;28;20046;-71
2022/06/12 03:27:54;;;;;;;0.38;0.20;;;;;;;25.56;40.47;101019.06;4987988;28;20090;-73
2022/06/12 03:30:40;;;;;;;0.80;0.20;;;;;;;25.56;40.64;101016.41;4990687;28;20775;-72
2022/06/12 03:33:15;;;;;;;0.77;0.32;;;;;;;25.53;40.40;101016.88;4956424;28;20041;-71
2022/06/12 03:35:46;;;;;;;0.85;0.40;;;;;;;25.51;40.57;101026.97;4987788;28;20038;-71
2022/06/12 03:38:21;;;;;;;1.33;0.20;;;;;;;25.50;40.67;101022.69;4990037;28;20092;-70
2022/06/12 03:41:09;;;;;;;1.95;0.30;;;;;;;25.49;40.69;101027.22;4990040;28;20038;-71
2022/06/12 03:43:40;;;;;;;0.50;0.30;;;;;;;25.48;40.84;101025.59;4991137;28;20546;-71
2022/06/12 03:46:31;;;;;;;0.47;0.20;;;;;;;25.48;40.75;101025.59;4990287;28;20038;-70
2022/06/12 03:49:02;;;;;;;0.57;0.20;;;;;;;25.46;41.04;101017.81;4987115;28;20169;-72
2022/06/12 03:51:56;;;;;;;0.50;0.20;;;;;;;25.49;40.64;101029.06;4990951;28;20134;-70
2022/06/12 03:54:50;;;;;;;1.15;0.30;;;;;;;25.43;40.50;101015.59;4930921;29;20051;-70
2022/06/12 04:00:17;;;;;;;0.80;0.40;;;;;;;25.43;40.71;101030.78;4930905;29;20078;-71
2022/06/12 04:02:50;;;;;;;0.55;0.28;;;;;;;25.40;40.70;101017.91;4929905;29;20044;-71
2022/06/12 04:05:31;;;;;;;2.47;0.30;;;;;;;25.41;40.73;101027.53;4930144;29;20084;-70
2022/06/12 04:07:59;;;;;;;0.70;0.30;;;;;;;25.45;40.71;101021.53;4929324;29;20075;-73
2022/06/12 04:10:30;;;;;;;2.42;0.28;;;;;;;25.48;40.80;101027.44;4930892;29;20027;-72
2022/06/12 04:12:56;;;;;;;0.45;0.20;;;;;;;25.48;40.63;101022.91;4928848;29;20032;-71
2022/06/12 04:15:40;;;;;;;0.77;0.35;;;;;;;25.49;40.63;101029.06;4931402;29;20066;-72
2022/06/12 04:18:06;;;;;;;0.30;0.20;;;;;;;25.49;40.77;101027.22;4930647;29;20040;-72
2022/06/12 04:20:38;;;;;;;1.20;0.35;;;;;;;25.49;40.63;101035.22;4932637;29;20098;-73
2022/06/12 04:23:16;;;;;;;1.95;0.30;;;;;;;25.48;40.44;101036.25;4931559;29;20167;-72
2022/06/12 04:25:43;;;;;;;0.52;0.30;;;;;;;25.47;40.49;101031.97;4917175;29;20114;-71
2022/06/12 04:28:38;;;;;;;1.23;0.30;;;;;;;25.43;40.24;101026.25;4928026;29;20122;-70
2022/06/12 04:31:09;;;;;;;1.05;0.30;;;;;;;25.43;40.29;101028.94;4955758;28;20395;-73
2022/06/12 04:33:40;;;;;;;0.63;0.20;;;;;;;25.43;40.36;101025.44;4978884;28;20038;-74
2022/06/12 04:36:08;;;;;;;1.77;0.30;;;;;;;25.41;40.27;101028.34;4990540;28;20061;-70
2022/06/12 04:38:35;;;;;;;0.60;0.30;;;;;;;25.40;40.34;101029.38;4989303;28;20061;-72
2022/06/12 04:41:01;;;;;;;1.08;0.30;;;;;;;25.40;40.40;101034.72;4990894;28;20018;-73
2022/06/12 04:43:28;;;;;;;1.45;0.30;;;;;;;25.41;40.32;101031.00;4988601;28;20097;-72
2022/06/12 04:45:54;;;;;;;0.73;0.20;;;;;;;25.43;40.50;101036.13;4990969;28;20036;-72
2022/06/12 04:48:28;;;;;;;1.65;0.30;;;;;;;25.43;40.29;101041.47;4987656;28;20030;-72
2022/06/12 04:50:54;;;;;;;1.75;0.30;;;;;;;25.43;40.45;101028.13;4973152;28;20035;-70
2022/06/12 04:53:20;;;;;;;1.02;0.20;;;;;;;25.43;40.44;101028.94;4979548;28;20049;-72
2022/06/12 04:55:46;;;;;;;0.70;0.20;;;;;;;25.45;40.45;101018.03;4991070;28;20033;-71
2022/06/12 04:58:11;;;;;;;2.13;0.30;;;;;;;25.45;40.47;101026.03;4987726;28;20545;-72
2022/06/12 05:00:37;;;;;;;0.88;0.30;;;;;;;25.43;40.47;101031.59;4988342;28;20109;-72
2022/06/12 05:03:03;;;;;;;1.70;0.22;;;;;;;25.43;40.55;101031.59;4988897;28;20061;-71
2022/06/12 05:05:29;;;;;;;1.33;0.20;;;;;;;25.45;40.21;101029.53;4975941;28;20121;-73
2022/06/12 05:07:56;;;;;;;0.50;0.10;;;;;;;25.45;40.48;101029.53;4981609;28;20254;-71
2022/06/12 05:10:21;;;;;;;1.08;0.30;;;;;;;25.46;40.39;101033.81;4988549;28;20584;-71
2022/06/12 05:12:48;;;;;;;0.50;0.30;;;;;;;25.49;40.48;101031.72;4986024;28;20071;-72
2022/06/12 05:15:14;;;;;;;3.55;0.45;;;;;;;25.50;40.47;101028.03;4987278;28;20072;-72
2022/06/12 05:17:44;;;;;;;3.08;0.30;;;;;;;25.52;40.40;101031.28;4986594;28;20030;-72
2022/06/12 05:20:16;;;;;;;0.93;0.30;;;;;;;25.51;40.29;101035.78;4980884;28;20423;-73
2022/06/12 05:22:41;;;;;;;1.35;0.30;;;;;;;25.53;40.54;101035.53;4970980;28;20038;-74
2022/06/12 05:25:08;;;;;;;0.88;0.20;;;;;;;25.52;40.56;101039.28;4971015;28;20042;-70
2022/06/12 05:27:34;;;;;;;0.75;0.30;;;;;;;25.51;40.51;101040.31;4983214;28;20065;-71
2022/06/12 05:30:00;;;;;;;0.85;0.20;;;;;;;25.51;40.41;101040.31;4988600;28;20502;-73
2022/06/12 05:32:25;;;;;;;0.60;0.20;;;;;;;25.51;40.64;101038.47;4989990;28;20039;-71
2022/06/12 05:34:52;;;;;;;0.93;0.20;;;;;;;25.51;40.60;101042.97;4985257;28;20030;-70
2022/06/12 05:37:18;;;;;;;0.40;0.20;;;;;;;25.51;40.76;101041.13;4981283;28;20036;-74
2022/06/12 05:39:44;;;;;;;1.90;0.20;;;;;;;25.52;40.76;101039.28;4982159;28;20036;-71
2022/06/12 05:42:10;;;;;;;1.10;0.20;;;;;;;25.51;40.70;101042.97;4987359;28;20046;-73
2022/06/12 05:44:36;;;;;;;3.15;0.30;;;;;;;25.52;40.69;101044.63;4987273;28;20030;-73
2022/06/12 05:47:02;;;;;;;1.05;0.20;;;;;;;25.52;41.00;101047.28;4987200;28;20037;-72
2022/06/12 05:49:28;;;;;;;1.02;0.20;;;;;;;25.51;40.97;101053.66;4986833;28;20034;-73
2022/06/12 05:51:54;;;;;;;0.30;0.20;;;;;;;25.51;40.75;101054.47;4970791;28;20380;-71
2022/06/12 05:54:20;;;;;;;1.17;0.30;;;;;;;25.51;40.89;101045.66;4974094;28;20030;-73
2022/06/12 05:56:45;;;;;;;0.28;0.10;;;;;;;25.51;40.97;101040.31;4971965;28;20034;-72
2022/06/12 05:59:11;;;;;;;0.50;0.20;;;;;;;25.51;40.96;101051.00;4986645;28;20532;-73
2022/06/12 06:01:39;;;;;;;0.63;0.20;;;;;;;25.51;41.06;101059.00;4989655;28;20034;-73
2022/06/12 06:04:05;;;;;;;0.52;0.20;;;;;;;25.51;40.91;101061.66;4989422;28;20475;-71
2022/06/12 06:06:42;;;;;;;1.60;0.20;;;;;;;25.50;41.04;101057.38;4989718;28;20026;-70
2022/06/12 06:09:08;;;;;;;0.55;0.20;;;;;;;25.50;40.98;101063.50;4989426;28;20030;-71
2022/06/12 06:11:33;;;;;;;0.63;0.20;;;;;;;25.51;40.91;101053.66;4989426;28;20114;-73
2022/06/12 06:13:59;;;;;;;0.40;0.20;;;;;;;25.50;41.07;101049.38;4989486;28;20441;-73
2022/06/12 06:16:24;;;;;;;0.57;0.20;;;;;;;25.49;41.10;101051.22;4989368;28;20620;-73
2022/06/12 06:18:50;;;;;;;1.05;0.20;;;;;;;25.49;41.33;101050.41;4989254;28;20056;-72
2022/06/12 06:21:16;;;;;;;0.82;0.20;;;;;;;25.48;41.28;101049.59;4989301;28;20038;-72
2022/06/12 06:23:42;;;;;;;0.70;0.22;;;;;;;25.49;41.29;101053.06;4989022;28;20039;-72
2022/06/12 06:26:09;;;;;;;1.98;0.30;;;;;;;25.50;41.21;101054.69;4988948;28;20032;-72
2022/06/12 06:28:35;;;;;;;0.93;0.20;;;;;;;25.48;41.06;101049.59;4988918;28;20026;-73
2022/06/12 06:31:01;;;;;;;2.13;0.47;;;;;;;25.46;41.16;101055.16;4989158;28;20080;-74
2022/06/12 06:33:27;;;;;;;1.13;0.30;;;;;;;25.45;41.42;101056.19;4989129;28;20081;-73
2022/06/12 06:35:52;;;;;;;0.60;0.20;;;;;;;25.45;41.19;101055.38;4989011;28;20467;-73
2022/06/12 06:38:19;;;;;;;0.50;0.20;;;;;;;25.45;41.35;101055.38;4988907;28;20030;-73
2022/06/12 06:40:45;;;;;;;0.88;0.20;;;;;;;25.44;41.09;101057.22;4988714;28;20038;-72
2022/06/12 06:43:11;;;;;;;1.05;0.20;;;;;;;25.43;41.16;101060.94;4988770;28;20502;-73
2022/06/12 06:48:22;;;;;;;2.47;0.30;;;;;;;25.40;41.18;101069.41;4989086;28;20125;-71
2022/06/12 06:50:48;;;;;;;1.08;0.20;;;;;;;25.40;41.16;101064.06;4988827;28;20077;-70
2022/06/12 06:53:14;;;;;;;1.75;0.20;;;;;;;25.40;41.20;101064.06;4988659;28;20479;-71
2022/06/12 06:55:41;;;;;;;0.57;0.20;;;;;;;25.41;41.25;101071.03;4989232;28;20033;-74
2022/06/12 06:58:10;;;;;;;0.60;0.30;;;;;;;25.40;41.31;101064.06;4988130;28;20371;-73
2022/06/12 07:00:38;;;;;;;1.52;0.20;;;;;;;25.39;41.25;101067.78;4989220;28;20034;-70
2022/06/12 07:03:05;;;;;;;1.30;0.20;;;;;;;25.40;41.23;101063.25;4988946;28;20030;-72
2022/06/12 07:05:30;;;;;;;0.40;0.20;;;;;;;25.40;41.25;101060.59;4988795;28;20030;-74
2022/06/12 07:07:57;;;;;;;0.45;0.17;;;;;;;25.40;41.32;101058.72;4988340;28;20464;-70
2022/06/12 07:10:25;;;;;;;0.40;0.20;;;;;;;25.41;41.08;101062.22;4988664;28;20046;-71
2022/06/12 07:12:55;;;;;;;0.50;0.20;;;;;;;25.41;41.17;101057.69;4988565;28;20121;-73
2022/06/12 07:15:22;;;;;;;0.30;0.20;;;;;;;25.40;41.37;101056.06;4988676;28;20129;-74
2022/06/12 07:17:49;;;;;;;0.60;0.20;;;;;;;25.41;41.32;101056.88;4988748;28;20026;-72
2022/06/12 07:20:23;;;;;;;0.35;0.20;;;;;;;25.41;41.28;101063.03;4988463;28;20435;-72
2022/06/12 07:22:49;;;;;;;0.40;0.20;;;;;;;25.40;41.71;101058.72;4988835;28;20046;-71
2022/06/12 07:25:15;;;;;;;0.80;0.40;;;;;;;25.41;41.31;101059.53;4988724;28;20057;-70
2022/06/12 07:27:42;;;;;;;0.40;0.20;;;;;;;25.41;41.52;101059.53;4988437;28;20031;-71
2022/06/12 07:30:12;;;;;;;1.88;0.20;;;;;;;25.40;41.31;101058.72;4988368;28;20513;-71
2022/06/12 07:32:38;;;;;;;0.60;0.20;;;;;;;25.39;41.23;101058.94;4988362;28;20054;-71
2022/06/12 07:35:05;;;;;;;0.80;0.20;;;;;;;25.38;41.33;101055.47;4988446;28;20509;-71
2022/06/12 07:37:31;;;;;;;0.88;0.20;;;;;;;25.38;41.45;101060.81;4988407;28;20036;-73
2022/06/12 07:39:57;;;;;;;0.50;0.20;;;;;;;25.38;41.46;101058.16;4988610;28;20031;-71
2022/06/12 07:42:22;;;;;;;1.23;0.30;;;;;;;25.37;41.48;101061.84;4988204;28;20042;-73
2022/06/12 07:44:48;;;;;;;0.73;0.40;;;;;;;25.38;41.66;101063.47;4988324;28;20066;-71
2022/06/12 07:47:14;;;;;;;0.65;0.20;;;;;;;25.38;41.54;101058.16;4988221;28;20109;-72
2022/06/12 07:49:39;;;;;;;0.50;0.30;;;;;;;25.39;41.55;101061.63;4988170;28;20368;-72
2022/06/12 07:52:08;;;;;;;0.50;0.30;;;;;;;25.41;42.18;101054.22;4988056;28;20534;-72
2022/06/12 07:54:36;;;;;;;1.10;0.30;;;;;;;25.52;42.67;101052.63;4988356;28;20054;-72
2022/06/12 07:57:02;;;;;;;10.80;0.88;;;;;;;25.63;43.72;101049.13;4988456;28;20467;-71
2022/06/12 07:59:28;;;;;;;2.05;0.65;;;;;;;25.71;45.32;101048.84;4988320;28;20054;-72
2022/06/12 08:01:53;;;;;;;8.98;2.85;;;;;;;25.75;45.33;101050.00;4988133;28;20066;-72
2022/06/12 08:04:20;;;;;;;4.63;2.38;;;;;;;25.78;45.72;101045.03;4988148;28;20018;-74
2022/06/12 08:06:46;;;;;;;4.88;1.15;;;;;;;25.76;45.66;101043.63;4988545;28;20444;-74
2022/06/12 08:09:12;;;;;;;6.20;0.80;;;;;;;25.73;45.60;101041.41;4990142;28;20487;-73
2022/06/12 08:11:41;;;;;;;3.53;0.65;;;;;;;25.72;45.73;101039.78;4991686;28;20109;-73
2022/06/12 08:14:06;;;;;;;4.35;0.57;;;;;;;25.70;45.03;101040.00;4992030;28;20053;-73
2022/06/12 08:16:33;;;;;;;2.90;0.40;;;;;;;25.71;44.55;101035.50;4991360;28;20491;-73
2022/06/12 08:19:00;;;;;;;4.53;0.40;;;;;;;25.70;44.80;101036.53;4991463;28;20030;-73
2022/06/12 08:21:26;;;;;;;1.35;0.30;;;;;;;25.70;44.48;101025.84;4991731;28;20386;-73
2022/06/12 08:23:58;;;;;;;1.88;0.20;;;;;;;25.67;43.45;101028.97;4991590;28;20038;-73
2022/06/12 08:26:34;;;;;;;0.95;0.20;;;;;;;25.64;42.67;101019.59;4991301;28;20033;-73
2022/06/12 08:29:11;;;;;;;0.55;0.20;;;;;;;25.60;41.88;101021.06;4991810;28;20504;-74
2022/06/12 08:31:38;;;;;;;1.95;0.17;;;;;;;25.61;41.51;101017.34;4992536;28;20027;-73
2022/06/12 08:34:09;;;;;;;0.45;0.20;;;;;;;25.60;41.27;101018.38;4991660;28;20035;-74
2022/06/12 08:36:36;;;;;;;3.80;0.20;;;;;;;25.61;41.25;101008.53;4991224;28;20041;-72
2022/06/12 08:39:04;;;;;;;4.32;0.25;;;;;;;25.62;40.75;101010.97;4991183;28;20026;-73
2022/06/12 08:41:33;;;;;;;3.00;0.65;;;;;;;25.63;42.46;101009.09;4990781;28;20050;-73
2022/06/12 08:44:43;;;;;;;5.40;0.88;;;;;;;25.61;41.86;101008.53;4991021;28;20112;-74
2022/06/12 08:47:20;;;;;;;3.88;0.38;;;;;;;25.63;39.85;101006.44;4980439;28;20065;-73
2022/06/12 08:49:54;;;;;;;0.80;0.17;;;;;;;25.64;38.17;101002.75;4991282;28;20549;-73
2022/06/12 08:52:32;;;;;;;0.40;0.10;;;;;;;25.63;38.17;101001.91;4991152;28;20058;-73
2022/06/12 08:55:06;;;;;;;1.02;0.10;;;;;;;25.67;37.84;101004.97;4991152;28;20046;-73
2022/06/12 08:58:00;;;;;;;0.70;0.10;;;;;;;25.67;37.69;100994.28;4991033;28;20077;-73
2022/06/12 09:00:30;;;;;;;0.30;0.20;;;;;;;25.67;36.68;100994.28;4991054;28;20398;-74
2022/06/12 09:02:56;;;;;;;1.60;0.20;;;;;;;25.71;36.21;100998.13;4991649;28;20053;-75
2022/06/12 09:05:28;;;;;;;1.95;0.10;;;;;;;25.74;35.53;100993.16;4991495;28;20442;-73
2022/06/12 09:07:59;;;;;;;0.28;0.13;;;;;;;25.73;35.93;100990.72;4991185;28;20040;-74
2022/06/12 09:10:39;;;;;;;0.80;0.13;;;;;;;25.71;36.36;100987.47;4991024;28;20113;-75
2022/06/12 09:13:28;;;;;;;0.32;0.10;;;;;;;25.72;36.64;100991.75;4990380;28;20165;-75
2022/06/12 09:16:08;;;;;;;0.50;0.10;;;;;;;25.74;36.74;100992.34;4990903;28;20042;-75
2022/06/12 09:18:59;;;;;;;0.60;0.10;;;;;;;25.76;36.59;100991.06;4990682;28;20034;-73
2022/06/12 09:21:57;;;;;;;1.35;0.20;;;;;;;25.74;37.00;100987.00;4989544;28;20113;-75
2022/06/12 09:24:51;;;;;;;0.98;0.20;;;;;;;25.72;36.52;100986.41;4987484;28;20085;-74
2022/06/12 09:27:41;;;;;;;0.75;0.10;;;;;;;25.71;36.82;100985.59;4969410;28;20049;-73
2022/06/12 09:30:12;;;;;;;3.22;0.65;;;;;;;25.74;36.75;100979.00;4990540;28;20133;-73
2022/06/12 09:32:54;;;;;;;0.60;0.30;;;;;;;25.75;36.81;100980.63;4989593;28;20034;-75
2022/06/12 09:36:01;;;;;;;1.88;0.30;;;;;;;25.76;36.84;100976.91;4980061;28;20081;-73
2022/06/12 09:38:40;;;;;;;5.32;0.30;;;;;;;25.76;36.69;100974.22;4989003;28;20050;-74
2022/06/12 09:41:12;;;;;;;6.45;0.22;;;;;;;25.81;36.28;100969.00;4985909;28;20030;-74
2022/06/12 09:43:58;;;;;;;8.10;0.75;;;;;;;25.83;35.73;100964.25;4990183;28;20121;-72
2022/06/12 09:46:46;;;;;;;1.20;0.20;;;;;;;25.90;34.65;100962.28;4987254;28;20030;-73
2022/06/12 09:49:33;;;;;;;0.32;0.20;;;;;;;25.89;35.25;100968.66;4987714;28;20491;-73
2022/06/12 09:52:31;;;;;;;1.48;0.20;;;;;;;25.85;35.85;100956.03;4977953;28;20139;-73
2022/06/12 09:55:15;;;;;;;2.00;0.20;;;;;;;25.84;36.35;100949.06;4989651;28;20038;-73
2022/06/12 09:57:53;;;;;;;1.67;0.20;;;;;;;25.79;36.94;100950.56;4988387;28;20125;-73
2022/06/12 10:00:51;;;;;;;2.17;0.40;;;;;;;25.78;37.16;100950.78;4989872;28;20033;-74
2022/06/12 10:03:16;;;;;;;1.45;0.20;;;;;;;25.78;37.11;100950.78;4989803;28;20088;-75
2022/06/12 10:05:53;;;;;;;3.65;0.25;;;;;;;25.79;37.41;100950.56;4990254;28;20519;-73
2022/06/12 10:08:28;;;;;;;2.30;0.20;;;;;;;25.80;37.16;100946.03;4990014;28;20034;-75
2022/06/12 10:11:08;;;;;;;1.35;0.20;;;;;;;25.78;37.58;100943.59;4983870;28;20061;-73
2022/06/12 10:13:46;;;;;;;0.85;0.20;;;;;;;25.77;37.55;100946.50;4988347;28;20173;-73
2022/06/12 10:16:18;;;;;;;0.85;0.10;;;;;;;25.77;37.75;100935.81;4986304;28;20049;-73
2022/06/12 10:19:20;;;;;;;0.63;0.20;;;;;;;25.76;36.45;100936.88;4987653;28;20085;-73
2022/06/12 10:21:51;;;;;;;1.58;0.38;;;;;;;25.78;36.13;100929.44;4970159;28;20118;-73
2022/06/12 10:24:16;;;;;;;1.13;0.20;;;;;;;25.82;36.02;100930.59;4987546;28;20112;-73
2022/06/12 10:26:55;;;;;;;1.33;0.20;;;;;;;25.82;35.70;100927.94;4989496;28;20022;-72
2022/06/12 10:29:24;;;;;;;3.05;0.20;;;;;;;25.92;35.02;100927.34;4989568;28;20101;-73
2022/06/12 10:31:57;;;;;;;4.03;0.20;;;;;;;25.94;34.87;100926.06;4989382;28;20420;-73
2022/06/12 10:34:28;;;;;;;0.50;0.20;;;;;;;25.92;35.13;100920.16;4989083;28;20034;-72
2022/06/12 10:36:54;;;;;;;0.77;0.20;;;;;;;25.89;35.18;100915.28;4989167;28;20030;-73
2022/06/12 10:39:23;;;;;;;0.40;0.10;;;;;;;25.88;35.11;100910.97;4989723;28;20045;-73
2022/06/12 10:41:48;;;;;;;0.47;0.20;;;;;;;25.89;35.21;100903.78;4989112;28;20050;-72
2022/06/12 10:44:28;;;;;;;0.30;0.20;;;;;;;25.94;34.52;100904.72;4989010;28;20506;-72
2022/06/12 10:46:54;;;;;;;0.77;0.20;;;;;;;26.00;34.80;100902.94;4988911;28;20486;-73
2022/06/12 10:49:23;;;;;;;0.60;0.20;;;;;;;26.03;34.55;100903.28;4989159;28;20022;-73
2022/06/12 10:51:50;;;;;;;0.85;0.20;;;;;;;26.03;34.80;100903.28;4989151;28;20402;-73
2022/06/12 10:54:26;;;;;;;0.43;0.20;;;;;;;26.03;34.38;100897.13;4989089;28;20490;-73
2022/06/12 10:57:44;;;;;;;1.55;0.30;;;;;;;26.00;34.67;100897.59;4988876;28;20046;-73
2022/06/12 11:00:20;;;;;;;0.40;0.10;;;;;;;25.97;35.23;100888.22;4986095;28;20050;-73
2022/06/12 11:02:54;;;;;;;1.75;0.20;;;;;;;25.99;35.38;100894.13;4988900;28;20053;-72
2022/06/12 11:06:04;;;;;;;0.88;0.20;;;;;;;26.02;35.16;100890.16;4988967;28;20066;-73
2022/06/12 11:08:57;;;;;;;2.55;0.10;;;;;;;26.04;35.17;100896.88;4947422;29;20039;-72
2022/06/12 11:11:48;;;;;;;0.35;0.20;;;;;;;26.01;35.35;100885.88;4947512;29;20131;-72
2022/06/12 11:14:36;;;;;;;1.20;0.30;;;;;;;26.01;35.52;100886.69;4947274;29;20077;-73
2022/06/12 11:17:20;;;;;;;2.83;0.20;;;;;;;26.01;35.31;100884.00;4947061;29;20171;-72
2022/06/12 11:19:57;;;;;;;0.70;0.22;;;;;;;26.04;35.60;100888.06;4947144;29;20074;-73
2022/06/12 11:22:28;;;;;;;1.48;0.30;;;;;;;26.05;35.44;100882.50;4947281;29;20047;-72
2022/06/12 11:25:27;;;;;;;0.65;0.20;;;;;;;26.14;34.90;100877.59;4947221;28;20374;-72
2022/06/12 11:28:01;;;;;;;0.52;0.20;;;;;;;26.21;34.20;100877.47;4947398;29;20039;-73
2022/06/12 11:30:57;;;;;;;0.85;0.20;;;;;;;26.26;34.01;100872.22;4946912;29;20483;-72
2022/06/12 11:33:41;;;;;;;3.72;0.20;;;;;;;26.26;34.00;100866.88;4947086;29;20031;-73
2022/06/12 11:36:18;;;;;;;0.63;0.10;;;;;;;26.27;34.01;100866.66;4947044;29;20373;-72
2022/06/12 11:38:53;;;;;;;0.52;0.20;;;;;;;26.28;33.59;100856.78;4946912;29;20110;-73
2022/06/12 11:41:46;;;;;;;0.67;0.20;;;;;;;26.27;33.93;100857.81;4949131;28;20181;-73
2022/06/12 11:44:14;;;;;;;0.40;0.10;;;;;;;26.29;34.15;100853.88;4990324;28;20327;-73
2022/06/12 11:47:08;;;;;;;0.57;0.22;;;;;;;26.30;34.28;100847.47;4992068;28;20034;-73
2022/06/12 11:49:45;;;;;;;2.80;0.20;;;;;;;26.32;34.33;100844.59;4992329;28;20137;-73
2022/06/12 11:52:27;;;;;;;1.92;0.20;;;;;;;26.38;33.94;100840.97;4992356;28;20100;-73
2022/06/12 11:55:13;;;;;;;1.95;0.20;;;;;;;26.39;34.25;100837.25;4987102;28;20038;-72
2022/06/12 11:58:04;;;;;;;1.13;0.20;;;;;;;26.43;34.03;100841.06;4991763;28;20132;-72
2022/06/12 12:00:33;;;;;;;2.00;0.30;;;;;;;26.49;33.85;100829.38;4961159;28;20077;-74
2022/06/12 12:03:27;;;;;;;1.05;0.20;;;;;;;26.54;34.22;100828.66;4992218;28;20034;-74
2022/06/12 12:06:14;;;;;;;1.20;0.30;;;;;;;26.52;35.43;100820.91;4989446;28;20513;-73
2022/06/12 12:08:52;;;;;;;0.70;0.22;;;;;;;26.51;35.50;100819.28;4991705;28;20069;-72